sensor_id;sensor_type;location;lat;lon;timestamp;P1;durP1;ratioP1;P2;durP2;ratioP2
6113;SDS011;3087;48.392;10.836;2023-04-06T00:01:06;10.03;;;8.07;;
6113;SDS011;3087;48.392;10.836;2023-04-06T00:03:32;9.77;;;7.43;;
6113;SDS011;3087;48.392;10.836;2023-04-06T00:05:58;10.20;;;7.17;;
6113;SDS011;3087;48.392;10.836;2023-04-06T00:08:23;8.83;;;6.80;;
6113;SDS011;3087;48.392;10.836;2023-04-06T00:10:50;10.33;;;7.03;;
6113;SDS011;3087;48.392;10.836;2023-04-06T00:13:16;9.30;;;7.17;;
6113;SDS011;3087;48.392;10.836;2023-04-06T00:15:41;9.93;;;6.67;;
6113;SDS011;3087;48.392;10.836;2023-04-06T00:18:07;8.17;;;7.33;;
6113;SDS011;3087;48.392;10.836;2023-04-06T00:20:33;8.90;;;6.40;;
6113;SDS011;3087;48.392;10.836;2023-04-06T00:22:58;9.93;;;7.10;;
6113;SDS011;3087;48.392;10.836;2023-04-06T00:25:25;10.20;;;6.47;;
6113;SDS011;3087;48.392;10.836;2023-04-06T00:27:50;7.80;;;6.37;;
6113;SDS011;3087;48.392;10.836;2023-04-06T00:30:16;7.83;;;6.53;;
6113;SDS011;3087;48.392;10.836;2023-04-06T00:32:42;10.83;;;7.10;;
6113;SDS011;3087;48.392;10.836;2023-04-06T00:35:07;8.47;;;6.77;;
6113;SDS011;3087;48.392;10.836;2023-04-06T00:37:33;8.60;;;6.63;;
6113;SDS011;3087;48.392;10.836;2023-04-06T00:39:59;12.30;;;7.97;;
6113;SDS011;3087;48.392;10.836;2023-04-06T00:42:25;9.63;;;7.47;;
6113;SDS011;3087;48.392;10.836;2023-04-06T00:44:52;9.07;;;7.13;;
6113;SDS011;3087;48.392;10.836;2023-04-06T00:47:18;9.77;;;7.03;;
6113;SDS011;3087;48.392;10.836;2023-04-06T00:49:44;10.13;;;7.60;;
6113;SDS011;3087;48.392;10.836;2023-04-06T00:52:10;8.97;;;6.57;;
6113;SDS011;3087;48.392;10.836;2023-04-06T00:54:35;9.97;;;7.40;;
6113;SDS011;3087;48.392;10.836;2023-04-06T00:57:01;10.83;;;7.50;;
6113;SDS011;3087;48.392;10.836;2023-04-06T00:59:27;9.10;;;7.10;;
6113;SDS011;3087;48.392;10.836;2023-04-06T01:01:54;11.33;;;7.93;;
6113;SDS011;3087;48.392;10.836;2023-04-06T01:04:20;10.77;;;7.20;;
6113;SDS011;3087;48.392;10.836;2023-04-06T01:06:47;9.67;;;6.87;;
6113;SDS011;3087;48.392;10.836;2023-04-06T01:09:14;7.63;;;6.70;;
6113;SDS011;3087;48.392;10.836;2023-04-06T01:11:39;9.00;;;7.10;;
6113;SDS011;3087;48.392;10.836;2023-04-06T01:14:06;8.33;;;6.67;;
6113;SDS011;3087;48.392;10.836;2023-04-06T01:16:33;9.30;;;7.57;;
6113;SDS011;3087;48.392;10.836;2023-04-06T01:18:59;9.47;;;7.40;;
6113;SDS011;3087;48.392;10.836;2023-04-06T01:21:24;7.43;;;6.60;;
6113;SDS011;3087;48.392;10.836;2023-04-06T01:23:50;11.20;;;7.50;;
6113;SDS011;3087;48.392;10.836;2023-04-06T01:26:16;8.43;;;6.67;;
6113;SDS011;3087;48.392;10.836;2023-04-06T01:28:42;9.00;;;7.27;;
6113;SDS011;3087;48.392;10.836;2023-04-06T01:31:09;8.47;;;7.03;;
6113;SDS011;3087;48.392;10.836;2023-04-06T01:33:35;8.10;;;6.60;;
6113;SDS011;3087;48.392;10.836;2023-04-06T01:36:01;8.47;;;6.83;;
6113;SDS011;3087;48.392;10.836;2023-04-06T01:38:28;11.10;;;6.70;;
6113;SDS011;3087;48.392;10.836;2023-04-06T01:40:53;9.03;;;7.57;;
6113;SDS011;3087;48.392;10.836;2023-04-06T01:43:20;9.37;;;6.63;;
6113;SDS011;3087;48.392;10.836;2023-04-06T01:45:45;10.17;;;7.50;;
6113;SDS011;3087;48.392;10.836;2023-04-06T01:48:11;9.47;;;7.87;;
6113;SDS011;3087;48.392;10.836;2023-04-06T01:50:37;11.97;;;7.83;;
6113;SDS011;3087;48.392;10.836;2023-04-06T01:53:03;9.47;;;7.40;;
6113;SDS011;3087;48.392;10.836;2023-04-06T01:55:28;21.97;;;16.60;;
6113;SDS011;3087;48.392;10.836;2023-04-06T01:57:54;11.77;;;8.00;;
6113;SDS011;3087;48.392;10.836;2023-04-06T02:00:20;9.27;;;6.83;;
6113;SDS011;3087;48.392;10.836;2023-04-06T02:02:45;7.80;;;6.53;;
6113;SDS011;3087;48.392;10.836;2023-04-06T02:05:11;11.30;;;8.27;;
6113;SDS011;3087;48.392;10.836;2023-04-06T02:07:37;10.20;;;7.77;;
6113;SDS011;3087;48.392;10.836;2023-04-06T02:10:02;11.10;;;9.13;;
6113;SDS011;3087;48.392;10.836;2023-04-06T02:12:28;11.03;;;9.10;;
6113;SDS011;3087;48.392;10.836;2023-04-06T02:14:54;11.87;;;8.67;;
6113;SDS011;3087;48.392;10.836;2023-04-06T02:17:20;8.63;;;7.43;;
6113;SDS011;3087;48.392;10.836;2023-04-06T02:19:45;11.10;;;8.90;;
6113;SDS011;3087;48.392;10.836;2023-04-06T02:22:11;11.20;;;8.50;;
6113;SDS011;3087;48.392;10.836;2023-04-06T02:24:37;15.57;;;8.23;;
6113;SDS011;3087;48.392;10.836;2023-04-06T02:27:02;12.60;;;8.23;;
6113;SDS011;3087;48.392;10.836;2023-04-06T02:29:28;12.00;;;8.40;;
6113;SDS011;3087;48.392;10.836;2023-04-06T02:31:54;9.97;;;8.50;;
6113;SDS011;3087;48.392;10.836;2023-04-06T02:34:20;9.87;;;8.63;;
6113;SDS011;3087;48.392;10.836;2023-04-06T02:36:45;9.73;;;7.90;;
6113;SDS011;3087;48.392;10.836;2023-04-06T02:39:12;12.07;;;8.53;;
6113;SDS011;3087;48.392;10.836;2023-04-06T02:41:38;8.77;;;7.30;;
6113;SDS011;3087;48.392;10.836;2023-04-06T02:44:06;7.83;;;6.93;;
6113;SDS011;3087;48.392;10.836;2023-04-06T02:46:33;11.57;;;8.13;;
6113;SDS011;3087;48.392;10.836;2023-04-06T02:48:59;11.93;;;9.43;;
6113;SDS011;3087;48.392;10.836;2023-04-06T02:51:25;12.73;;;10.10;;
6113;SDS011;3087;48.392;10.836;2023-04-06T02:53:51;14.83;;;10.50;;
6113;SDS011;3087;48.392;10.836;2023-04-06T02:56:18;13.27;;;10.17;;
6113;SDS011;3087;48.392;10.836;2023-04-06T02:58:46;13.63;;;9.57;;
6113;SDS011;3087;48.392;10.836;2023-04-06T03:01:11;10.73;;;9.20;;
6113;SDS011;3087;48.392;10.836;2023-04-06T03:03:37;17.87;;;9.47;;
6113;SDS011;3087;48.392;10.836;2023-04-06T03:06:03;13.33;;;9.87;;
6113;SDS011;3087;48.392;10.836;2023-04-06T03:08:29;14.23;;;10.07;;
6113;SDS011;3087;48.392;10.836;2023-04-06T03:10:55;11.63;;;9.10;;
6113;SDS011;3087;48.392;10.836;2023-04-06T03:13:20;13.63;;;10.40;;
6113;SDS011;3087;48.392;10.836;2023-04-06T03:15:46;16.47;;;11.33;;
6113;SDS011;3087;48.392;10.836;2023-04-06T03:18:12;14.47;;;10.67;;
6113;SDS011;3087;48.392;10.836;2023-04-06T03:20:37;13.40;;;11.03;;
6113;SDS011;3087;48.392;10.836;2023-04-06T03:23:03;12.53;;;10.40;;
6113;SDS011;3087;48.392;10.836;2023-04-06T03:25:29;17.43;;;10.47;;
6113;SDS011;3087;48.392;10.836;2023-04-06T03:27:57;15.63;;;10.97;;
6113;SDS011;3087;48.392;10.836;2023-04-06T03:30:23;13.83;;;11.17;;
6113;SDS011;3087;48.392;10.836;2023-04-06T03:32:49;14.47;;;9.77;;
6113;SDS011;3087;48.392;10.836;2023-04-06T03:35:14;13.80;;;10.10;;
6113;SDS011;3087;48.392;10.836;2023-04-06T03:37:40;15.10;;;10.67;;
6113;SDS011;3087;48.392;10.836;2023-04-06T03:40:06;13.10;;;10.23;;
6113;SDS011;3087;48.392;10.836;2023-04-06T03:42:32;14.80;;;10.60;;
6113;SDS011;3087;48.392;10.836;2023-04-06T03:44:58;13.27;;;10.60;;
6113;SDS011;3087;48.392;10.836;2023-04-06T03:47:24;13.33;;;10.17;;
6113;SDS011;3087;48.392;10.836;2023-04-06T03:49:50;12.33;;;9.10;;
6113;SDS011;3087;48.392;10.836;2023-04-06T03:52:16;12.97;;;10.20;;
6113;SDS011;3087;48.392;10.836;2023-04-06T03:54:41;12.97;;;9.10;;
6113;SDS011;3087;48.392;10.836;2023-04-06T03:57:07;11.60;;;9.50;;
6113;SDS011;3087;48.392;10.836;2023-04-06T03:59:33;16.07;;;10.80;;
6113;SDS011;3087;48.392;10.836;2023-04-06T04:01:59;15.33;;;10.80;;
6113;SDS011;3087;48.392;10.836;2023-04-06T04:04:25;19.20;;;11.33;;
6113;SDS011;3087;48.392;10.836;2023-04-06T04:06:50;12.93;;;11.03;;
6113;SDS011;3087;48.392;10.836;2023-04-06T04:09:16;15.47;;;10.93;;
6113;SDS011;3087;48.392;10.836;2023-04-06T04:11:41;13.27;;;10.77;;
6113;SDS011;3087;48.392;10.836;2023-04-06T04:14:07;12.90;;;11.00;;
6113;SDS011;3087;48.392;10.836;2023-04-06T04:16:33;15.07;;;10.40;;
6113;SDS011;3087;48.392;10.836;2023-04-06T04:18:58;12.20;;;9.57;;
6113;SDS011;3087;48.392;10.836;2023-04-06T04:21:24;13.70;;;10.23;;
6113;SDS011;3087;48.392;10.836;2023-04-06T04:23:50;12.57;;;10.23;;
6113;SDS011;3087;48.392;10.836;2023-04-06T04:26:17;13.73;;;10.70;;
6113;SDS011;3087;48.392;10.836;2023-04-06T04:28:43;15.97;;;10.87;;
6113;SDS011;3087;48.392;10.836;2023-04-06T04:31:09;20.67;;;13.47;;
6113;SDS011;3087;48.392;10.836;2023-04-06T04:33:35;15.50;;;10.77;;
6113;SDS011;3087;48.392;10.836;2023-04-06T04:36:01;16.87;;;11.10;;
6113;SDS011;3087;48.392;10.836;2023-04-06T04:38:27;15.93;;;11.67;;
6113;SDS011;3087;48.392;10.836;2023-04-06T04:40:52;15.03;;;11.00;;
6113;SDS011;3087;48.392;10.836;2023-04-06T04:43:18;15.53;;;11.00;;
6113;SDS011;3087;48.392;10.836;2023-04-06T04:45:43;15.17;;;11.20;;
6113;SDS011;3087;48.392;10.836;2023-04-06T04:48:09;13.53;;;11.07;;
6113;SDS011;3087;48.392;10.836;2023-04-06T04:50:35;14.47;;;11.93;;
6113;SDS011;3087;48.392;10.836;2023-04-06T04:53:00;14.87;;;11.37;;
6113;SDS011;3087;48.392;10.836;2023-04-06T04:55:27;16.50;;;10.50;;
6113;SDS011;3087;48.392;10.836;2023-04-06T04:57:54;13.77;;;11.47;;
6113;SDS011;3087;48.392;10.836;2023-04-06T05:00:19;17.30;;;11.10;;
6113;SDS011;3087;48.392;10.836;2023-04-06T05:02:45;17.60;;;11.43;;
6113;SDS011;3087;48.392;10.836;2023-04-06T05:05:11;16.00;;;11.07;;
6113;SDS011;3087;48.392;10.836;2023-04-06T05:07:37;12.43;;;10.83;;
6113;SDS011;3087;48.392;10.836;2023-04-06T05:10:02;16.30;;;12.30;;
6113;SDS011;3087;48.392;10.836;2023-04-06T05:12:28;15.93;;;11.50;;
6113;SDS011;3087;48.392;10.836;2023-04-06T05:14:54;14.60;;;10.97;;
6113;SDS011;3087;48.392;10.836;2023-04-06T05:17:20;13.33;;;10.10;;
6113;SDS011;3087;48.392;10.836;2023-04-06T05:19:46;20.00;;;10.67;;
6113;SDS011;3087;48.392;10.836;2023-04-06T05:22:11;16.90;;;12.13;;
6113;SDS011;3087;48.392;10.836;2023-04-06T05:24:39;16.70;;;11.70;;
6113;SDS011;3087;48.392;10.836;2023-04-06T05:27:05;17.27;;;12.43;;
6113;SDS011;3087;48.392;10.836;2023-04-06T05:29:31;17.10;;;12.70;;
6113;SDS011;3087;48.392;10.836;2023-04-06T05:31:57;18.03;;;12.27;;
6113;SDS011;3087;48.392;10.836;2023-04-06T05:34:22;17.03;;;11.63;;
6113;SDS011;3087;48.392;10.836;2023-04-06T05:36:48;23.30;;;12.90;;
6113;SDS011;3087;48.392;10.836;2023-04-06T05:39:14;16.20;;;12.97;;
6113;SDS011;3087;48.392;10.836;2023-04-06T05:41:40;18.70;;;12.50;;
6113;SDS011;3087;48.392;10.836;2023-04-06T05:44:06;17.87;;;11.90;;
6113;SDS011;3087;48.392;10.836;2023-04-06T05:46:31;16.40;;;10.90;;
6113;SDS011;3087;48.392;10.836;2023-04-06T05:48:57;21.83;;;13.47;;
6113;SDS011;3087;48.392;10.836;2023-04-06T05:51:23;16.57;;;10.33;;
6113;SDS011;3087;48.392;10.836;2023-04-06T05:53:49;14.67;;;10.47;;
6113;SDS011;3087;48.392;10.836;2023-04-06T05:56:14;15.83;;;10.97;;
6113;SDS011;3087;48.392;10.836;2023-04-06T05:58:40;12.30;;;9.97;;
6113;SDS011;3087;48.392;10.836;2023-04-06T06:01:06;16.83;;;11.07;;
6113;SDS011;3087;48.392;10.836;2023-04-06T06:03:31;15.83;;;10.30;;
6113;SDS011;3087;48.392;10.836;2023-04-06T06:06:00;16.60;;;10.73;;
6113;SDS011;3087;48.392;10.836;2023-04-06T06:08:27;17.23;;;10.30;;
6113;SDS011;3087;48.392;10.836;2023-04-06T06:10:53;14.47;;;9.90;;
6113;SDS011;3087;48.392;10.836;2023-04-06T06:13:19;16.67;;;9.93;;
6113;SDS011;3087;48.392;10.836;2023-04-06T06:15:45;14.67;;;9.40;;
6113;SDS011;3087;48.392;10.836;2023-04-06T06:18:11;16.03;;;9.77;;
6113;SDS011;3087;48.392;10.836;2023-04-06T06:20:36;17.37;;;10.70;;
6113;SDS011;3087;48.392;10.836;2023-04-06T06:23:02;14.83;;;9.93;;
6113;SDS011;3087;48.392;10.836;2023-04-06T06:25:28;14.63;;;10.30;;
6113;SDS011;3087;48.392;10.836;2023-04-06T06:27:55;14.77;;;10.07;;
6113;SDS011;3087;48.392;10.836;2023-04-06T06:30:22;15.47;;;9.73;;
6113;SDS011;3087;48.392;10.836;2023-04-06T06:32:47;15.50;;;11.30;;
6113;SDS011;3087;48.392;10.836;2023-04-06T06:35:13;17.13;;;9.97;;
6113;SDS011;3087;48.392;10.836;2023-04-06T06:37:39;15.23;;;9.77;;
6113;SDS011;3087;48.392;10.836;2023-04-06T06:40:05;13.67;;;10.27;;
6113;SDS011;3087;48.392;10.836;2023-04-06T06:42:31;13.03;;;10.47;;
6113;SDS011;3087;48.392;10.836;2023-04-06T06:44:56;11.90;;;9.73;;
6113;SDS011;3087;48.392;10.836;2023-04-06T06:47:22;13.10;;;10.40;;
6113;SDS011;3087;48.392;10.836;2023-04-06T06:49:48;13.43;;;9.67;;
6113;SDS011;3087;48.392;10.836;2023-04-06T06:52:14;15.37;;;10.70;;
6113;SDS011;3087;48.392;10.836;2023-04-06T06:54:39;16.67;;;11.10;;
6113;SDS011;3087;48.392;10.836;2023-04-06T06:57:05;16.33;;;11.83;;
6113;SDS011;3087;48.392;10.836;2023-04-06T06:59:31;17.20;;;11.07;;
6113;SDS011;3087;48.392;10.836;2023-04-06T07:01:56;22.03;;;11.93;;
6113;SDS011;3087;48.392;10.836;2023-04-06T07:04:22;18.47;;;11.37;;
6113;SDS011;3087;48.392;10.836;2023-04-06T07:06:48;14.93;;;10.70;;
6113;SDS011;3087;48.392;10.836;2023-04-06T07:09:13;16.43;;;10.27;;
6113;SDS011;3087;48.392;10.836;2023-04-06T07:11:39;16.20;;;10.33;;
6113;SDS011;3087;48.392;10.836;2023-04-06T07:14:05;13.43;;;10.03;;
6113;SDS011;3087;48.392;10.836;2023-04-06T07:16:30;12.07;;;9.77;;
6113;SDS011;3087;48.392;10.836;2023-04-06T07:18:56;13.90;;;10.77;;
6113;SDS011;3087;48.392;10.836;2023-04-06T07:21:21;13.13;;;10.30;;
6113;SDS011;3087;48.392;10.836;2023-04-06T07:23:47;12.97;;;10.17;;
6113;SDS011;3087;48.392;10.836;2023-04-06T07:26:13;17.57;;;9.87;;
6113;SDS011;3087;48.392;10.836;2023-04-06T07:28:39;13.47;;;10.27;;
6113;SDS011;3087;48.392;10.836;2023-04-06T07:31:05;14.37;;;9.80;;
6113;SDS011;3087;48.392;10.836;2023-04-06T07:33:31;14.20;;;9.63;;
6113;SDS011;3087;48.392;10.836;2023-04-06T07:35:56;17.13;;;10.13;;
6113;SDS011;3087;48.392;10.836;2023-04-06T07:38:23;11.93;;;9.80;;
6113;SDS011;3087;48.392;10.836;2023-04-06T07:40:49;12.97;;;9.50;;
6113;SDS011;3087;48.392;10.836;2023-04-06T07:43:15;13.40;;;9.90;;
6113;SDS011;3087;48.392;10.836;2023-04-06T07:45:41;13.20;;;10.07;;
6113;SDS011;3087;48.392;10.836;2023-04-06T07:48:07;10.83;;;9.60;;
6113;SDS011;3087;48.392;10.836;2023-04-06T07:50:32;13.87;;;9.93;;
6113;SDS011;3087;48.392;10.836;2023-04-06T07:52:58;13.83;;;9.67;;
6113;SDS011;3087;48.392;10.836;2023-04-06T07:55:24;11.63;;;9.40;;
6113;SDS011;3087;48.392;10.836;2023-04-06T07:57:50;14.63;;;9.53;;
6113;SDS011;3087;48.392;10.836;2023-04-06T08:00:16;13.10;;;9.40;;
6113;SDS011;3087;48.392;10.836;2023-04-06T08:02:42;12.73;;;9.60;;
6113;SDS011;3087;48.392;10.836;2023-04-06T08:05:08;14.33;;;9.90;;
6113;SDS011;3087;48.392;10.836;2023-04-06T08:07:34;12.77;;;9.23;;
6113;SDS011;3087;48.392;10.836;2023-04-06T08:10:00;14.83;;;10.23;;
6113;SDS011;3087;48.392;10.836;2023-04-06T08:12:26;12.83;;;9.40;;
6113;SDS011;3087;48.392;10.836;2023-04-06T08:14:52;13.20;;;9.60;;
6113;SDS011;3087;48.392;10.836;2023-04-06T08:17:17;14.77;;;9.43;;
6113;SDS011;3087;48.392;10.836;2023-04-06T08:19:43;11.03;;;8.60;;
6113;SDS011;3087;48.392;10.836;2023-04-06T08:22:09;12.83;;;8.77;;
6113;SDS011;3087;48.392;10.836;2023-04-06T08:24:35;12.23;;;8.70;;
6113;SDS011;3087;48.392;10.836;2023-04-06T08:27:01;11.00;;;8.83;;
6113;SDS011;3087;48.392;10.836;2023-04-06T08:29:27;11.57;;;8.47;;
6113;SDS011;3087;48.392;10.836;2023-04-06T08:31:52;10.47;;;8.00;;
6113;SDS011;3087;48.392;10.836;2023-04-06T08:34:18;10.43;;;7.67;;
6113;SDS011;3087;48.392;10.836;2023-04-06T08:36:44;10.00;;;8.40;;
6113;SDS011;3087;48.392;10.836;2023-04-06T08:39:10;12.20;;;8.50;;
6113;SDS011;3087;48.392;10.836;2023-04-06T08:41:36;12.93;;;9.17;;
6113;SDS011;3087;48.392;10.836;2023-04-06T08:44:02;12.17;;;8.20;;
6113;SDS011;3087;48.392;10.836;2023-04-06T08:46:28;11.20;;;8.00;;
6113;SDS011;3087;48.392;10.836;2023-04-06T08:48:55;10.10;;;8.27;;
6113;SDS011;3087;48.392;10.836;2023-04-06T08:51:26;9.87;;;8.00;;
6113;SDS011;3087;48.392;10.836;2023-04-06T08:53:56;10.10;;;8.40;;
6113;SDS011;3087;48.392;10.836;2023-04-06T08:56:23;9.83;;;8.20;;
6113;SDS011;3087;48.392;10.836;2023-04-06T08:58:51;11.97;;;8.73;;
6113;SDS011;3087;48.392;10.836;2023-04-06T09:01:20;8.87;;;7.20;;
6113;SDS011;3087;48.392;10.836;2023-04-06T09:03:48;14.17;;;8.17;;
6113;SDS011;3087;48.392;10.836;2023-04-06T09:06:15;10.40;;;7.73;;
6113;SDS011;3087;48.392;10.836;2023-04-06T09:08:41;10.90;;;8.60;;
6113;SDS011;3087;48.392;10.836;2023-04-06T09:11:07;10.50;;;7.60;;
6113;SDS011;3087;48.392;10.836;2023-04-06T09:16:21;9.77;;;7.57;;
6113;SDS011;3087;48.392;10.836;2023-04-06T09:18:50;10.23;;;8.20;;
6113;SDS011;3087;48.392;10.836;2023-04-06T09:21:25;11.97;;;7.40;;
6113;SDS011;3087;48.392;10.836;2023-04-06T09:24:00;12.73;;;9.00;;
6113;SDS011;3087;48.392;10.836;2023-04-06T09:32:27;10.33;;;7.93;;
6113;SDS011;3087;48.392;10.836;2023-04-06T09:37:32;10.23;;;8.20;;
6113;SDS011;3087;48.392;10.836;2023-04-06T09:40:02;10.87;;;8.03;;
6113;SDS011;3087;48.392;10.836;2023-04-06T09:42:30;10.70;;;7.93;;
6113;SDS011;3087;48.392;10.836;2023-04-06T09:44:56;8.80;;;7.90;;
6113;SDS011;3087;48.392;10.836;2023-04-06T09:47:22;11.55;;;7.80;;
6113;SDS011;3087;48.392;10.836;2023-04-06T09:49:50;11.68;;;8.27;;
6113;SDS011;3087;48.392;10.836;2023-04-06T09:52:18;10.50;;;7.15;;
6113;SDS011;3087;48.392;10.836;2023-04-06T09:54:46;9.55;;;7.95;;
6113;SDS011;3087;48.392;10.836;2023-04-06T09:57:25;10.38;;;8.25;;
6113;SDS011;3087;48.392;10.836;2023-04-06T09:59:58;10.10;;;7.88;;
6113;SDS011;3087;48.392;10.836;2023-04-06T10:05:05;8.60;;;7.68;;
6113;SDS011;3087;48.392;10.836;2023-04-06T10:07:38;9.07;;;7.82;;
6113;SDS011;3087;48.392;10.836;2023-04-06T10:10:05;9.75;;;7.93;;
6113;SDS011;3087;48.392;10.836;2023-04-06T10:12:31;9.57;;;8.38;;
6113;SDS011;3087;48.392;10.836;2023-04-06T10:14:57;9.50;;;7.97;;
6113;SDS011;3087;48.392;10.836;2023-04-06T10:17:24;10.80;;;8.73;;
6113;SDS011;3087;48.392;10.836;2023-04-06T10:20:00;10.07;;;7.93;;
6113;SDS011;3087;48.392;10.836;2023-04-06T10:25:30;9.35;;;8.02;;
6113;SDS011;3087;48.392;10.836;2023-04-06T10:28:00;8.95;;;7.65;;
6113;SDS011;3087;48.392;10.836;2023-04-06T10:33:17;7.70;;;6.90;;
6113;SDS011;3087;48.392;10.836;2023-04-06T10:35:45;7.68;;;6.88;;
6113;SDS011;3087;48.392;10.836;2023-04-06T10:38:11;9.07;;;7.28;;
6113;SDS011;3087;48.392;10.836;2023-04-06T10:40:39;9.77;;;6.80;;
6113;SDS011;3087;48.392;10.836;2023-04-06T10:43:08;7.80;;;7.00;;
6113;SDS011;3087;48.392;10.836;2023-04-06T10:45:38;8.25;;;7.18;;
6113;SDS011;3087;48.392;10.836;2023-04-06T10:48:16;10.20;;;7.97;;
6113;SDS011;3087;48.392;10.836;2023-04-06T10:50:44;10.73;;;7.10;;
6113;SDS011;3087;48.392;10.836;2023-04-06T10:53:11;13.65;;;7.03;;
6113;SDS011;3087;48.392;10.836;2023-04-06T10:55:55;8.95;;;7.30;;
6113;SDS011;3087;48.392;10.836;2023-04-06T10:58:28;7.32;;;6.60;;
6113;SDS011;3087;48.392;10.836;2023-04-06T11:00:55;6.72;;;5.88;;
6113;SDS011;3087;48.392;10.836;2023-04-06T11:03:20;6.30;;;5.53;;
6113;SDS011;3087;48.392;10.836;2023-04-06T11:05:47;6.70;;;5.93;;
6113;SDS011;3087;48.392;10.836;2023-04-06T11:13:50;6.60;;;5.85;;
6113;SDS011;3087;48.392;10.836;2023-04-06T11:18:57;8.98;;;5.88;;
6113;SDS011;3087;48.392;10.836;2023-04-06T11:21:38;6.57;;;5.90;;
6113;SDS011;3087;48.392;10.836;2023-04-06T11:24:09;8.20;;;6.60;;
6113;SDS011;3087;48.392;10.836;2023-04-06T11:29:10;8.07;;;6.38;;
6113;SDS011;3087;48.392;10.836;2023-04-06T11:31:37;6.72;;;5.10;;
6113;SDS011;3087;48.392;10.836;2023-04-06T11:34:11;6.18;;;5.50;;
6113;SDS011;3087;48.392;10.836;2023-04-06T11:36:42;7.30;;;5.90;;
6113;SDS011;3087;48.392;10.836;2023-04-06T11:39:08;6.78;;;6.07;;
6113;SDS011;3087;48.392;10.836;2023-04-06T11:41:35;7.85;;;5.72;;
6113;SDS011;3087;48.392;10.836;2023-04-06T11:44:01;6.72;;;5.93;;
6113;SDS011;3087;48.392;10.836;2023-04-06T11:46:30;7.03;;;6.07;;
6113;SDS011;3087;48.392;10.836;2023-04-06T11:48:59;7.05;;;6.35;;
6113;SDS011;3087;48.392;10.836;2023-04-06T11:51:26;7.50;;;6.70;;
6113;SDS011;3087;48.392;10.836;2023-04-06T11:53:52;9.80;;;6.20;;
6113;SDS011;3087;48.392;10.836;2023-04-06T11:56:27;6.25;;;5.65;;
6113;SDS011;3087;48.392;10.836;2023-04-06T11:58:54;6.75;;;6.15;;
6113;SDS011;3087;48.392;10.836;2023-04-06T12:01:22;7.72;;;6.18;;
6113;SDS011;3087;48.392;10.836;2023-04-06T12:03:49;6.68;;;6.07;;
6113;SDS011;3087;48.392;10.836;2023-04-06T12:06:16;6.30;;;5.70;;
6113;SDS011;3087;48.392;10.836;2023-04-06T12:08:42;6.35;;;5.53;;
6113;SDS011;3087;48.392;10.836;2023-04-06T12:11:08;7.65;;;6.38;;
6113;SDS011;3087;48.392;10.836;2023-04-06T12:13:33;7.53;;;5.03;;
6113;SDS011;3087;48.392;10.836;2023-04-06T12:15:59;6.28;;;5.47;;
6113;SDS011;3087;48.392;10.836;2023-04-06T12:18:25;8.55;;;5.80;;
6113;SDS011;3087;48.392;10.836;2023-04-06T12:20:51;6.20;;;5.60;;
6113;SDS011;3087;48.392;10.836;2023-04-06T12:23:17;6.85;;;5.60;;
6113;SDS011;3087;48.392;10.836;2023-04-06T12:25:45;5.93;;;5.43;;
6113;SDS011;3087;48.392;10.836;2023-04-06T12:28:11;6.30;;;5.70;;
6113;SDS011;3087;48.392;10.836;2023-04-06T12:30:36;7.05;;;6.35;;
6113;SDS011;3087;48.392;10.836;2023-04-06T12:33:02;6.53;;;5.93;;
6113;SDS011;3087;48.392;10.836;2023-04-06T12:35:27;6.20;;;5.60;;
6113;SDS011;3087;48.392;10.836;2023-04-06T12:37:53;5.88;;;5.10;;
6113;SDS011;3087;48.392;10.836;2023-04-06T12:40:19;6.95;;;6.25;;
6113;SDS011;3087;48.392;10.836;2023-04-06T12:42:45;9.52;;;6.40;;
6113;SDS011;3087;48.392;10.836;2023-04-06T12:45:11;6.30;;;5.70;;
6113;SDS011;3087;48.392;10.836;2023-04-06T12:47:37;6.50;;;5.90;;
6113;SDS011;3087;48.392;10.836;2023-04-06T12:50:04;6.68;;;5.97;;
6113;SDS011;3087;48.392;10.836;2023-04-06T12:52:33;6.75;;;6.15;;
6113;SDS011;3087;48.392;10.836;2023-04-06T12:55:00;7.07;;;5.75;;
6113;SDS011;3087;48.392;10.836;2023-04-06T12:57:27;12.20;;;10.95;;
6113;SDS011;3087;48.392;10.836;2023-04-06T12:59:52;6.57;;;5.65;;
6113;SDS011;3087;48.392;10.836;2023-04-06T13:02:18;6.95;;;6.03;;
6113;SDS011;3087;48.392;10.836;2023-04-06T13:04:48;5.75;;;4.72;;
6113;SDS011;3087;48.392;10.836;2023-04-06T13:07:14;5.57;;;4.75;;
6113;SDS011;3087;48.392;10.836;2023-04-06T13:09:40;5.30;;;4.72;;
6113;SDS011;3087;48.392;10.836;2023-04-06T13:12:06;5.10;;;4.60;;
6113;SDS011;3087;48.392;10.836;2023-04-06T13:14:31;5.38;;;4.88;;
6113;SDS011;3087;48.392;10.836;2023-04-06T13:16:57;6.45;;;4.70;;
6113;SDS011;3087;48.392;10.836;2023-04-06T13:19:22;5.40;;;4.82;;
6113;SDS011;3087;48.392;10.836;2023-04-06T13:21:48;6.60;;;4.78;;
6113;SDS011;3087;48.392;10.836;2023-04-06T13:24:14;5.20;;;4.68;;
6113;SDS011;3087;48.392;10.836;2023-04-06T13:26:40;5.50;;;4.60;;
6113;SDS011;3087;48.392;10.836;2023-04-06T13:29:06;6.82;;;5.50;;
6113;SDS011;3087;48.392;10.836;2023-04-06T13:31:31;7.63;;;4.60;;
6113;SDS011;3087;48.392;10.836;2023-04-06T13:33:57;7.03;;;5.03;;
6113;SDS011;3087;48.392;10.836;2023-04-06T13:36:23;5.38;;;4.88;;
6113;SDS011;3087;48.392;10.836;2023-04-06T13:38:49;6.65;;;5.28;;
6113;SDS011;3087;48.392;10.836;2023-04-06T13:41:22;8.88;;;5.68;;
6113;SDS011;3087;48.392;10.836;2023-04-06T13:43:50;5.97;;;5.10;;
6113;SDS011;3087;48.392;10.836;2023-04-06T13:46:16;6.05;;;5.40;;
6113;SDS011;3087;48.392;10.836;2023-04-06T13:48:42;6.43;;;5.68;;
6113;SDS011;3087;48.392;10.836;2023-04-06T13:51:11;5.88;;;5.30;;
6113;SDS011;3087;48.392;10.836;2023-04-06T13:53:38;6.82;;;5.28;;
6113;SDS011;3087;48.392;10.836;2023-04-06T13:56:05;6.10;;;4.35;;
6113;SDS011;3087;48.392;10.836;2023-04-06T13:58:31;6.35;;;5.65;;
6113;SDS011;3087;48.392;10.836;2023-04-06T14:01:04;6.43;;;4.80;;
6113;SDS011;3087;48.392;10.836;2023-04-06T14:03:34;5.75;;;5.10;;
6113;SDS011;3087;48.392;10.836;2023-04-06T14:06:00;7.32;;;6.40;;
6113;SDS011;3087;48.392;10.836;2023-04-06T14:08:34;5.88;;;5.20;;
6113;SDS011;3087;48.392;10.836;2023-04-06T14:11:00;5.80;;;5.00;;
6113;SDS011;3087;48.392;10.836;2023-04-06T14:13:25;5.72;;;5.13;;
6113;SDS011;3087;48.392;10.836;2023-04-06T14:15:54;5.55;;;4.57;;
6113;SDS011;3087;48.392;10.836;2023-04-06T14:18:20;6.40;;;5.68;;
6113;SDS011;3087;48.392;10.836;2023-04-06T14:20:53;5.68;;;4.90;;
6113;SDS011;3087;48.392;10.836;2023-04-06T14:23:20;5.75;;;4.72;;
6113;SDS011;3087;48.392;10.836;2023-04-06T14:25:45;6.22;;;5.60;;
6113;SDS011;3087;48.392;10.836;2023-04-06T14:28:11;6.20;;;5.07;;
6113;SDS011;3087;48.392;10.836;2023-04-06T14:30:37;5.45;;;4.95;;
6113;SDS011;3087;48.392;10.836;2023-04-06T14:33:03;6.25;;;5.18;;
6113;SDS011;3087;48.392;10.836;2023-04-06T14:35:28;6.00;;;5.22;;
6113;SDS011;3087;48.392;10.836;2023-04-06T14:37:57;6.60;;;5.45;;
6113;SDS011;3087;48.392;10.836;2023-04-06T14:40:23;6.40;;;5.30;;
6113;SDS011;3087;48.392;10.836;2023-04-06T14:42:49;5.53;;;5.03;;
6113;SDS011;3087;48.392;10.836;2023-04-06T14:45:19;5.40;;;4.90;;
6113;SDS011;3087;48.392;10.836;2023-04-06T14:47:46;7.50;;;5.85;;
6113;SDS011;3087;48.392;10.836;2023-04-06T14:50:12;7.70;;;5.78;;
6113;SDS011;3087;48.392;10.836;2023-04-06T14:52:37;8.18;;;5.88;;
6113;SDS011;3087;48.392;10.836;2023-04-06T14:55:03;6.82;;;6.13;;
6113;SDS011;3087;48.392;10.836;2023-04-06T14:57:29;6.43;;;5.30;;
6113;SDS011;3087;48.392;10.836;2023-04-06T14:59:55;6.10;;;5.50;;
6113;SDS011;3087;48.392;10.836;2023-04-06T15:02:21;6.75;;;6.03;;
6113;SDS011;3087;48.392;10.836;2023-04-06T15:04:47;7.05;;;5.57;;
6113;SDS011;3087;48.392;10.836;2023-04-06T15:07:12;6.15;;;5.53;;
6113;SDS011;3087;48.392;10.836;2023-04-06T15:09:38;6.95;;;6.25;;
6113;SDS011;3087;48.392;10.836;2023-04-06T15:12:03;8.30;;;6.00;;
6113;SDS011;3087;48.392;10.836;2023-04-06T15:14:30;8.88;;;5.88;;
6113;SDS011;3087;48.392;10.836;2023-04-06T15:16:55;6.35;;;5.72;;